Rochester, MA (02770)

7:14 PM EST on January 17, 2017 (GMT -0500)
Rochester | | Change Station
Active Advisory: Small Craft Advisory

Elev 24 ft 41.74 °N, 70.83 °W | Updated 46 seconds ago

Rain
Rain
35.8 °F
Feels Like 36 °F
N
0.0
Wind Variable Wind from ESE
Gusts 0.0 mph

Today
High -- | Low -- °F
--% Chance of Precip.
Yesterday
High -- | Low -- °F
Precip. -- in
Pressure 30.14 in
Visibility 8.0 miles
Clouds Overcast 4800 ft
Windchill 36 °F
Dew Point 36 °F
Humidity 99%
Rainfall 0.07 in
Snow Depth Not available.
7:06 AM 4:40 PM
Waning Gibbous, 68% visible
METAR KEWB 172353Z 06005KT 8SM -RA OVC048 04/02 A3014 RMK AO2 SLP207 P0001 60002 T00390017 10072 20039 58006
Pressure 30.14 in
Visibility 8.0 miles
Clouds Overcast 4800 ft
Windchill 36 °F
Dew Point 36 °F
Humidity 99%
Rainfall 0.07 in
Snow Depth Not available.
7:06 AM 4:40 PM
Waning Gibbous, 68% visible
METAR KEWB 172353Z 06005KT 8SM -RA OVC048 04/02 A3014 RMK AO2 SLP207 P0001 60002 T00390017 10072 20039 58006

Get Your Daily Forecast Email!

Thanks for signing up!

Be on the lookout for a verification email in your inbox.

You'll start receiving the daily forecast at 8 AM.

×

10-Day Weather Forecast

Almanac

Astronomy

Jan. 17, 2017 Rise Set
Actual Time
Civil Twilight
Nautical Twilight
Astronomical Twilight
Moon
Length of Visible Light
Length of Day
Tomorrow will be .
, % of the Moon is Illuminated

Today's Extremes

State Highs State Lows

Community

WunderPhotos

Upload Photos

1,962,540 photos uploaded!

WunderBlog® & News

Nearby

Air Quality

  Air Quality AQ Index Pollutant
Not available.

Snow Depth

Station Depth Elevation

Earthquake Activity

City Distance Mag. Time & Date
Minimum magnitude displayed is 2.5.

Coastal Water Temperatures

Place Temperature

Stations

Nearby Weather Stations

Station Location Temp. Windchill Dew Point Humidity Wind Precip. Elev Updated Type
                   

Watches & Warnings

Small Craft Advisory
Issued: 3:45 PM EST Jan. 17, 2017 – National Weather Service

... Small Craft Advisory remains in effect from 11 PM this evening
to 7 PM EST Wednesday...

* winds and seas... northeast winds 10 to 20 kt with gusts up to
30 kt. Seas 3 to 5 feet.

Precautionary/preparedness actions...

A Small Craft Advisory means that wind speeds of 25 to 33 knots
are expected to produce hazardous wave conditions to small craft.
Inexperienced mariners... especially those operating smaller
vessels should avoid navigating in these conditions.